sensor_id;sensor_type;location;lat;lon;timestamp;P1;durP1;ratioP1;P2;durP2;ratioP2
49460;SDS011;35355;49.198;-0.368;2023-01-31T00:00:40;24.42;;;8.60;;
49460;SDS011;35355;49.198;-0.368;2023-01-31T00:03:06;23.83;;;9.02;;
49460;SDS011;35355;49.198;-0.368;2023-01-31T00:05:31;28.77;;;9.63;;
49460;SDS011;35355;49.198;-0.368;2023-01-31T00:07:56;28.55;;;10.27;;
49460;SDS011;35355;49.198;-0.368;2023-01-31T00:10:22;23.50;;;8.77;;
49460;SDS011;35355;49.198;-0.368;2023-01-31T00:12:47;17.95;;;8.73;;
49460;SDS011;35355;49.198;-0.368;2023-01-31T00:15:12;30.02;;;11.55;;
49460;SDS011;35355;49.198;-0.368;2023-01-31T00:17:40;26.35;;;9.20;;
49460;SDS011;35355;49.198;-0.368;2023-01-31T00:20:06;31.50;;;9.77;;
49460;SDS011;35355;49.198;-0.368;2023-01-31T00:22:32;24.65;;;9.13;;
49460;SDS011;35355;49.198;-0.368;2023-01-31T00:24:57;18.20;;;7.72;;
49460;SDS011;35355;49.198;-0.368;2023-01-31T00:27:23;23.23;;;8.43;;
49460;SDS011;35355;49.198;-0.368;2023-01-31T00:29:48;27.92;;;9.00;;
49460;SDS011;35355;49.198;-0.368;2023-01-31T00:32:14;24.08;;;6.95;;
49460;SDS011;35355;49.198;-0.368;2023-01-31T00:34:39;18.60;;;7.40;;
49460;SDS011;35355;49.198;-0.368;2023-01-31T00:37:04;20.50;;;7.90;;
49460;SDS011;35355;49.198;-0.368;2023-01-31T00:39:30;27.08;;;7.40;;
49460;SDS011;35355;49.198;-0.368;2023-01-31T00:41:55;25.45;;;8.10;;
49460;SDS011;35355;49.198;-0.368;2023-01-31T00:44:20;24.25;;;8.90;;
49460;SDS011;35355;49.198;-0.368;2023-01-31T00:46:46;27.55;;;9.48;;
49460;SDS011;35355;49.198;-0.368;2023-01-31T00:49:11;25.85;;;9.05;;
49460;SDS011;35355;49.198;-0.368;2023-01-31T00:51:36;25.88;;;7.25;;
49460;SDS011;35355;49.198;-0.368;2023-01-31T00:54:02;21.33;;;6.18;;
49460;SDS011;35355;49.198;-0.368;2023-01-31T00:56:27;21.98;;;7.80;;
49460;SDS011;35355;49.198;-0.368;2023-01-31T00:58:53;19.58;;;6.93;;
49460;SDS011;35355;49.198;-0.368;2023-01-31T01:03:52;25.30;;;7.37;;
49460;SDS011;35355;49.198;-0.368;2023-01-31T01:06:19;21.80;;;7.45;;
49460;SDS011;35355;49.198;-0.368;2023-01-31T01:08:46;27.27;;;7.93;;
49460;SDS011;35355;49.198;-0.368;2023-01-31T01:11:16;20.55;;;7.57;;
49460;SDS011;35355;49.198;-0.368;2023-01-31T01:13:43;24.42;;;6.75;;
49460;SDS011;35355;49.198;-0.368;2023-01-31T01:16:16;21.35;;;8.38;;
49460;SDS011;35355;49.198;-0.368;2023-01-31T01:18:43;24.00;;;8.38;;
49460;SDS011;35355;49.198;-0.368;2023-01-31T01:21:13;23.08;;;7.40;;
49460;SDS011;35355;49.198;-0.368;2023-01-31T01:23:41;22.15;;;8.38;;
49460;SDS011;35355;49.198;-0.368;2023-01-31T01:29:02;24.85;;;6.80;;
49460;SDS011;35355;49.198;-0.368;2023-01-31T01:31:28;27.13;;;6.25;;
49460;SDS011;35355;49.198;-0.368;2023-01-31T01:33:55;26.40;;;6.32;;
49460;SDS011;35355;49.198;-0.368;2023-01-31T01:36:24;18.50;;;5.93;;
49460;SDS011;35355;49.198;-0.368;2023-01-31T01:38:50;24.15;;;6.07;;
49460;SDS011;35355;49.198;-0.368;2023-01-31T01:41:16;19.13;;;5.60;;
49460;SDS011;35355;49.198;-0.368;2023-01-31T01:43:46;19.92;;;6.30;;
49460;SDS011;35355;49.198;-0.368;2023-01-31T01:46:15;13.43;;;5.25;;
49460;SDS011;35355;49.198;-0.368;2023-01-31T01:48:44;19.45;;;6.10;;
49460;SDS011;35355;49.198;-0.368;2023-01-31T01:51:13;29.55;;;6.32;;
49460;SDS011;35355;49.198;-0.368;2023-01-31T01:53:43;21.38;;;6.80;;
49460;SDS011;35355;49.198;-0.368;2023-01-31T01:56:14;21.92;;;6.95;;
49460;SDS011;35355;49.198;-0.368;2023-01-31T01:58:57;23.75;;;7.15;;
49460;SDS011;35355;49.198;-0.368;2023-01-31T02:01:28;22.75;;;7.32;;
49460;SDS011;35355;49.198;-0.368;2023-01-31T02:03:57;26.83;;;6.82;;
49460;SDS011;35355;49.198;-0.368;2023-01-31T02:06:23;27.15;;;8.07;;
49460;SDS011;35355;49.198;-0.368;2023-01-31T02:08:49;24.50;;;7.55;;
49460;SDS011;35355;49.198;-0.368;2023-01-31T02:13:48;26.65;;;6.38;;
49460;SDS011;35355;49.198;-0.368;2023-01-31T02:16:17;19.30;;;7.22;;
49460;SDS011;35355;49.198;-0.368;2023-01-31T02:18:43;21.35;;;5.45;;
49460;SDS011;35355;49.198;-0.368;2023-01-31T02:27:08;19.90;;;5.05;;
49460;SDS011;35355;49.198;-0.368;2023-01-31T02:45:37;17.13;;;4.90;;
49460;SDS011;35355;49.198;-0.368;2023-01-31T02:50:48;16.27;;;4.72;;
49460;SDS011;35355;49.198;-0.368;2023-01-31T02:55:58;14.18;;;4.50;;
49460;SDS011;35355;49.198;-0.368;2023-01-31T02:59:00;24.88;;;4.28;;
49460;SDS011;35355;49.198;-0.368;2023-01-31T03:01:30;15.50;;;3.40;;
49460;SDS011;35355;49.198;-0.368;2023-01-31T03:04:04;18.85;;;3.97;;
49460;SDS011;35355;49.198;-0.368;2023-01-31T03:16:49;21.35;;;4.82;;
49460;SDS011;35355;49.198;-0.368;2023-01-31T03:22:26;16.73;;;4.15;;
49460;SDS011;35355;49.198;-0.368;2023-01-31T03:24:55;18.15;;;3.90;;
49460;SDS011;35355;49.198;-0.368;2023-01-31T03:27:23;10.68;;;3.20;;
49460;SDS011;35355;49.198;-0.368;2023-01-31T03:29:49;19.33;;;3.78;;
49460;SDS011;35355;49.198;-0.368;2023-01-31T03:32:19;14.90;;;3.42;;
49460;SDS011;35355;49.198;-0.368;2023-01-31T03:34:50;12.60;;;3.10;;
49460;SDS011;35355;49.198;-0.368;2023-01-31T03:48:12;9.65;;;3.35;;
49460;SDS011;35355;49.198;-0.368;2023-01-31T03:51:00;14.95;;;3.08;;
49460;SDS011;35355;49.198;-0.368;2023-01-31T03:53:34;13.98;;;2.72;;
49460;SDS011;35355;49.198;-0.368;2023-01-31T03:56:25;14.38;;;3.97;;
49460;SDS011;35355;49.198;-0.368;2023-01-31T03:58:58;16.08;;;4.60;;
49460;SDS011;35355;49.198;-0.368;2023-01-31T04:01:27;21.17;;;4.30;;
49460;SDS011;35355;49.198;-0.368;2023-01-31T04:06:21;16.77;;;3.75;;
49460;SDS011;35355;49.198;-0.368;2023-01-31T04:08:47;10.82;;;3.35;;
49460;SDS011;35355;49.198;-0.368;2023-01-31T04:11:13;13.27;;;3.13;;
49460;SDS011;35355;49.198;-0.368;2023-01-31T04:13:39;9.88;;;3.85;;
49460;SDS011;35355;49.198;-0.368;2023-01-31T04:16:05;14.13;;;3.63;;
49460;SDS011;35355;49.198;-0.368;2023-01-31T04:18:31;18.75;;;5.00;;
49460;SDS011;35355;49.198;-0.368;2023-01-31T04:20:56;12.80;;;2.92;;
49460;SDS011;35355;49.198;-0.368;2023-01-31T04:23:22;16.20;;;3.30;;
49460;SDS011;35355;49.198;-0.368;2023-01-31T04:25:49;16.70;;;2.90;;
49460;SDS011;35355;49.198;-0.368;2023-01-31T04:28:16;14.20;;;2.70;;
49460;SDS011;35355;49.198;-0.368;2023-01-31T04:30:41;15.70;;;2.83;;
49460;SDS011;35355;49.198;-0.368;2023-01-31T04:33:07;16.98;;;4.65;;
49460;SDS011;35355;49.198;-0.368;2023-01-31T04:35:32;15.18;;;2.60;;
49460;SDS011;35355;49.198;-0.368;2023-01-31T04:37:58;19.58;;;3.00;;
49460;SDS011;35355;49.198;-0.368;2023-01-31T04:40:24;12.52;;;3.47;;
49460;SDS011;35355;49.198;-0.368;2023-01-31T04:42:49;14.38;;;4.10;;
49460;SDS011;35355;49.198;-0.368;2023-01-31T04:45:15;15.18;;;3.72;;
49460;SDS011;35355;49.198;-0.368;2023-01-31T04:47:40;16.30;;;4.00;;
49460;SDS011;35355;49.198;-0.368;2023-01-31T04:50:06;8.48;;;2.83;;
49460;SDS011;35355;49.198;-0.368;2023-01-31T04:52:32;16.27;;;3.28;;
49460;SDS011;35355;49.198;-0.368;2023-01-31T04:54:57;16.48;;;2.90;;
49460;SDS011;35355;49.198;-0.368;2023-01-31T04:57:23;11.32;;;2.78;;
49460;SDS011;35355;49.198;-0.368;2023-01-31T04:59:48;13.98;;;3.17;;
49460;SDS011;35355;49.198;-0.368;2023-01-31T05:02:14;13.55;;;2.90;;
49460;SDS011;35355;49.198;-0.368;2023-01-31T05:04:39;11.18;;;2.90;;
49460;SDS011;35355;49.198;-0.368;2023-01-31T05:07:05;12.25;;;3.05;;
49460;SDS011;35355;49.198;-0.368;2023-01-31T05:09:30;7.63;;;2.33;;
49460;SDS011;35355;49.198;-0.368;2023-01-31T05:11:56;14.93;;;2.50;;
49460;SDS011;35355;49.198;-0.368;2023-01-31T05:14:21;7.57;;;2.28;;
49460;SDS011;35355;49.198;-0.368;2023-01-31T05:16:47;12.90;;;2.78;;
49460;SDS011;35355;49.198;-0.368;2023-01-31T05:19:13;12.68;;;3.78;;
49460;SDS011;35355;49.198;-0.368;2023-01-31T05:21:39;10.77;;;2.72;;
49460;SDS011;35355;49.198;-0.368;2023-01-31T05:24:33;15.80;;;2.67;;
49460;SDS011;35355;49.198;-0.368;2023-01-31T05:27:00;18.80;;;3.08;;
49460;SDS011;35355;49.198;-0.368;2023-01-31T05:29:27;8.52;;;2.22;;
49460;SDS011;35355;49.198;-0.368;2023-01-31T05:52:00;16.17;;;3.63;;
49460;SDS011;35355;49.198;-0.368;2023-01-31T05:54:26;17.27;;;2.88;;
49460;SDS011;35355;49.198;-0.368;2023-01-31T05:56:51;10.32;;;3.40;;
49460;SDS011;35355;49.198;-0.368;2023-01-31T05:59:16;16.67;;;3.30;;
49460;SDS011;35355;49.198;-0.368;2023-01-31T06:01:42;15.35;;;3.40;;
49460;SDS011;35355;49.198;-0.368;2023-01-31T06:04:08;16.98;;;3.63;;
49460;SDS011;35355;49.198;-0.368;2023-01-31T06:06:34;16.00;;;3.13;;
49460;SDS011;35355;49.198;-0.368;2023-01-31T06:08:59;16.98;;;3.47;;
49460;SDS011;35355;49.198;-0.368;2023-01-31T06:11:24;11.07;;;3.53;;
49460;SDS011;35355;49.198;-0.368;2023-01-31T06:13:50;9.40;;;2.83;;
49460;SDS011;35355;49.198;-0.368;2023-01-31T06:16:15;12.00;;;2.58;;
49460;SDS011;35355;49.198;-0.368;2023-01-31T06:18:40;8.23;;;2.63;;
49460;SDS011;35355;49.198;-0.368;2023-01-31T06:21:06;8.88;;;2.38;;
49460;SDS011;35355;49.198;-0.368;2023-01-31T06:23:33;11.52;;;2.83;;
49460;SDS011;35355;49.198;-0.368;2023-01-31T06:25:58;11.15;;;2.47;;
49460;SDS011;35355;49.198;-0.368;2023-01-31T06:28:24;9.63;;;2.45;;
49460;SDS011;35355;49.198;-0.368;2023-01-31T06:30:49;10.18;;;2.90;;
49460;SDS011;35355;49.198;-0.368;2023-01-31T06:33:15;5.78;;;2.60;;
49460;SDS011;35355;49.198;-0.368;2023-01-31T06:35:40;13.52;;;2.67;;
49460;SDS011;35355;49.198;-0.368;2023-01-31T06:38:06;13.05;;;2.55;;
49460;SDS011;35355;49.198;-0.368;2023-01-31T06:40:32;14.15;;;3.55;;
49460;SDS011;35355;49.198;-0.368;2023-01-31T06:42:57;13.73;;;3.03;;
49460;SDS011;35355;49.198;-0.368;2023-01-31T06:45:23;9.05;;;3.08;;
49460;SDS011;35355;49.198;-0.368;2023-01-31T06:47:49;14.05;;;3.03;;
49460;SDS011;35355;49.198;-0.368;2023-01-31T06:50:14;9.65;;;2.33;;
49460;SDS011;35355;49.198;-0.368;2023-01-31T06:52:40;10.07;;;2.05;;
49460;SDS011;35355;49.198;-0.368;2023-01-31T06:55:06;19.50;;;3.25;;
49460;SDS011;35355;49.198;-0.368;2023-01-31T06:57:31;15.38;;;3.15;;
49460;SDS011;35355;49.198;-0.368;2023-01-31T06:59:57;19.52;;;2.92;;
49460;SDS011;35355;49.198;-0.368;2023-01-31T07:02:22;12.32;;;3.85;;
49460;SDS011;35355;49.198;-0.368;2023-01-31T07:04:48;17.35;;;4.00;;
49460;SDS011;35355;49.198;-0.368;2023-01-31T07:07:13;11.88;;;3.40;;
49460;SDS011;35355;49.198;-0.368;2023-01-31T07:09:39;12.35;;;2.15;;
49460;SDS011;35355;49.198;-0.368;2023-01-31T07:12:04;9.50;;;2.22;;
49460;SDS011;35355;49.198;-0.368;2023-01-31T07:14:29;12.70;;;2.85;;
49460;SDS011;35355;49.198;-0.368;2023-01-31T07:16:55;13.88;;;2.75;;
49460;SDS011;35355;49.198;-0.368;2023-01-31T07:19:20;14.10;;;2.75;;
49460;SDS011;35355;49.198;-0.368;2023-01-31T07:21:46;11.57;;;2.63;;
49460;SDS011;35355;49.198;-0.368;2023-01-31T07:24:13;10.43;;;2.40;;
49460;SDS011;35355;49.198;-0.368;2023-01-31T07:26:41;13.68;;;2.60;;
49460;SDS011;35355;49.198;-0.368;2023-01-31T07:29:06;12.88;;;2.90;;
49460;SDS011;35355;49.198;-0.368;2023-01-31T07:31:32;18.42;;;3.42;;
49460;SDS011;35355;49.198;-0.368;2023-01-31T07:33:58;10.30;;;2.65;;
49460;SDS011;35355;49.198;-0.368;2023-01-31T07:36:24;8.05;;;2.30;;
49460;SDS011;35355;49.198;-0.368;2023-01-31T07:38:53;16.35;;;3.22;;
49460;SDS011;35355;49.198;-0.368;2023-01-31T07:41:20;14.93;;;3.15;;
49460;SDS011;35355;49.198;-0.368;2023-01-31T07:43:45;7.80;;;1.95;;
49460;SDS011;35355;49.198;-0.368;2023-01-31T07:46:11;17.17;;;3.28;;
49460;SDS011;35355;49.198;-0.368;2023-01-31T07:48:36;11.35;;;2.20;;
49460;SDS011;35355;49.198;-0.368;2023-01-31T07:51:02;8.32;;;2.45;;
49460;SDS011;35355;49.198;-0.368;2023-01-31T07:53:29;11.27;;;2.47;;
49460;SDS011;35355;49.198;-0.368;2023-01-31T07:56:11;12.43;;;2.05;;
49460;SDS011;35355;49.198;-0.368;2023-01-31T07:58:39;13.60;;;2.85;;
49460;SDS011;35355;49.198;-0.368;2023-01-31T08:01:05;14.38;;;2.03;;
49460;SDS011;35355;49.198;-0.368;2023-01-31T08:03:50;12.25;;;1.63;;
49460;SDS011;35355;49.198;-0.368;2023-01-31T08:06:16;13.15;;;2.65;;
49460;SDS011;35355;49.198;-0.368;2023-01-31T08:08:42;11.82;;;1.67;;
49460;SDS011;35355;49.198;-0.368;2023-01-31T08:11:08;10.27;;;2.55;;
49460;SDS011;35355;49.198;-0.368;2023-01-31T08:13:34;11.48;;;2.13;;
49460;SDS011;35355;49.198;-0.368;2023-01-31T08:16:01;7.90;;;2.83;;
49460;SDS011;35355;49.198;-0.368;2023-01-31T08:18:27;10.20;;;2.60;;
49460;SDS011;35355;49.198;-0.368;2023-01-31T08:20:53;13.07;;;2.80;;
49460;SDS011;35355;49.198;-0.368;2023-01-31T08:23:18;11.60;;;2.72;;
49460;SDS011;35355;49.198;-0.368;2023-01-31T08:25:44;15.25;;;3.80;;
49460;SDS011;35355;49.198;-0.368;2023-01-31T08:28:09;18.17;;;3.08;;
49460;SDS011;35355;49.198;-0.368;2023-01-31T08:30:39;11.15;;;2.92;;
49460;SDS011;35355;49.198;-0.368;2023-01-31T08:33:05;15.82;;;3.10;;
49460;SDS011;35355;49.198;-0.368;2023-01-31T08:35:31;18.75;;;4.35;;
49460;SDS011;35355;49.198;-0.368;2023-01-31T08:37:56;18.33;;;4.68;;
49460;SDS011;35355;49.198;-0.368;2023-01-31T08:40:22;15.40;;;3.38;;
49460;SDS011;35355;49.198;-0.368;2023-01-31T08:42:57;24.08;;;5.65;;
49460;SDS011;35355;49.198;-0.368;2023-01-31T08:45:24;17.80;;;6.07;;
49460;SDS011;35355;49.198;-0.368;2023-01-31T08:47:53;26.52;;;6.65;;
49460;SDS011;35355;49.198;-0.368;2023-01-31T08:50:20;17.58;;;6.00;;
49460;SDS011;35355;49.198;-0.368;2023-01-31T08:52:46;25.08;;;7.50;;
49460;SDS011;35355;49.198;-0.368;2023-01-31T08:55:11;24.15;;;5.53;;
49460;SDS011;35355;49.198;-0.368;2023-01-31T08:57:38;20.65;;;4.85;;
49460;SDS011;35355;49.198;-0.368;2023-01-31T09:00:06;22.42;;;4.70;;
49460;SDS011;35355;49.198;-0.368;2023-01-31T09:02:32;21.42;;;4.38;;
49460;SDS011;35355;49.198;-0.368;2023-01-31T09:04:57;12.07;;;4.60;;
49460;SDS011;35355;49.198;-0.368;2023-01-31T09:07:23;14.65;;;3.70;;
49460;SDS011;35355;49.198;-0.368;2023-01-31T09:09:48;13.02;;;3.65;;
49460;SDS011;35355;49.198;-0.368;2023-01-31T09:12:14;15.98;;;4.75;;
49460;SDS011;35355;49.198;-0.368;2023-01-31T09:14:39;22.30;;;4.38;;
49460;SDS011;35355;49.198;-0.368;2023-01-31T09:17:04;16.95;;;3.85;;
49460;SDS011;35355;49.198;-0.368;2023-01-31T09:19:31;17.30;;;3.35;;
49460;SDS011;35355;49.198;-0.368;2023-01-31T09:21:57;19.52;;;3.58;;
49460;SDS011;35355;49.198;-0.368;2023-01-31T09:24:23;13.38;;;4.03;;
49460;SDS011;35355;49.198;-0.368;2023-01-31T09:26:48;21.95;;;4.30;;
49460;SDS011;35355;49.198;-0.368;2023-01-31T09:29:13;16.38;;;3.03;;
49460;SDS011;35355;49.198;-0.368;2023-01-31T09:31:39;12.23;;;2.08;;
49460;SDS011;35355;49.198;-0.368;2023-01-31T09:34:04;11.02;;;2.72;;
49460;SDS011;35355;49.198;-0.368;2023-01-31T09:36:29;23.45;;;4.30;;
49460;SDS011;35355;49.198;-0.368;2023-01-31T09:38:55;17.45;;;3.08;;
49460;SDS011;35355;49.198;-0.368;2023-01-31T09:47:09;12.20;;;2.42;;
49460;SDS011;35355;49.198;-0.368;2023-01-31T09:54:44;13.68;;;2.45;;
49460;SDS011;35355;49.198;-0.368;2023-01-31T09:57:19;15.73;;;2.70;;
49460;SDS011;35355;49.198;-0.368;2023-01-31T09:59:58;12.25;;;2.03;;
49460;SDS011;35355;49.198;-0.368;2023-01-31T10:02:30;12.10;;;1.90;;
49460;SDS011;35355;49.198;-0.368;2023-01-31T10:05:05;18.98;;;2.95;;
49460;SDS011;35355;49.198;-0.368;2023-01-31T10:07:39;15.50;;;2.28;;
49460;SDS011;35355;49.198;-0.368;2023-01-31T10:10:13;14.02;;;1.83;;
49460;SDS011;35355;49.198;-0.368;2023-01-31T10:13:00;13.85;;;2.08;;
49460;SDS011;35355;49.198;-0.368;2023-01-31T10:15:43;13.13;;;1.80;;
49460;SDS011;35355;49.198;-0.368;2023-01-31T10:18:17;17.95;;;1.67;;
49460;SDS011;35355;49.198;-0.368;2023-01-31T10:20:53;14.55;;;2.05;;
49460;SDS011;35355;49.198;-0.368;2023-01-31T10:23:30;15.98;;;2.58;;
49460;SDS011;35355;49.198;-0.368;2023-01-31T10:26:05;11.27;;;1.55;;
49460;SDS011;35355;49.198;-0.368;2023-01-31T10:31:56;8.45;;;1.75;;
49460;SDS011;35355;49.198;-0.368;2023-01-31T10:34:59;6.68;;;1.27;;
49460;SDS011;35355;49.198;-0.368;2023-01-31T10:40:08;8.60;;;1.55;;
49460;SDS011;35355;49.198;-0.368;2023-01-31T10:42:44;11.50;;;1.33;;
49460;SDS011;35355;49.198;-0.368;2023-01-31T10:45:21;11.43;;;1.15;;
49460;SDS011;35355;49.198;-0.368;2023-01-31T10:47:54;13.48;;;0.90;;
49460;SDS011;35355;49.198;-0.368;2023-01-31T10:58:30;8.10;;;1.10;;
49460;SDS011;35355;49.198;-0.368;2023-01-31T11:00:57;12.57;;;0.98;;
49460;SDS011;35355;49.198;-0.368;2023-01-31T11:03:22;10.63;;;1.30;;
49460;SDS011;35355;49.198;-0.368;2023-01-31T11:05:50;10.65;;;1.27;;
49460;SDS011;35355;49.198;-0.368;2023-01-31T11:08:35;15.00;;;1.35;;
49460;SDS011;35355;49.198;-0.368;2023-01-31T11:11:10;15.20;;;1.52;;
49460;SDS011;35355;49.198;-0.368;2023-01-31T11:13:37;17.25;;;1.98;;
49460;SDS011;35355;49.198;-0.368;2023-01-31T11:16:03;7.32;;;1.05;;
49460;SDS011;35355;49.198;-0.368;2023-01-31T11:21:09;12.18;;;2.65;;
49460;SDS011;35355;49.198;-0.368;2023-01-31T11:23:44;6.63;;;1.58;;
49460;SDS011;35355;49.198;-0.368;2023-01-31T11:26:10;11.65;;;2.42;;
49460;SDS011;35355;49.198;-0.368;2023-01-31T11:28:39;8.60;;;1.50;;
49460;SDS011;35355;49.198;-0.368;2023-01-31T11:31:06;12.55;;;2.30;;
49460;SDS011;35355;49.198;-0.368;2023-01-31T11:36:10;14.02;;;2.28;;
49460;SDS011;35355;49.198;-0.368;2023-01-31T11:38:40;13.27;;;1.40;;
49460;SDS011;35355;49.198;-0.368;2023-01-31T11:44:16;8.18;;;0.98;;
49460;SDS011;35355;49.198;-0.368;2023-01-31T11:49:25;9.57;;;1.10;;
49460;SDS011;35355;49.198;-0.368;2023-01-31T11:52:13;16.10;;;1.93;;
49460;SDS011;35355;49.198;-0.368;2023-01-31T11:54:45;9.15;;;1.25;;
49460;SDS011;35355;49.198;-0.368;2023-01-31T11:57:20;11.15;;;1.42;;
49460;SDS011;35355;49.198;-0.368;2023-01-31T11:59:49;12.32;;;2.42;;
49460;SDS011;35355;49.198;-0.368;2023-01-31T12:02:22;9.18;;;1.75;;
49460;SDS011;35355;49.198;-0.368;2023-01-31T12:04:48;16.25;;;2.28;;
49460;SDS011;35355;49.198;-0.368;2023-01-31T12:07:20;11.00;;;1.20;;
49460;SDS011;35355;49.198;-0.368;2023-01-31T12:09:47;11.75;;;1.85;;
49460;SDS011;35355;49.198;-0.368;2023-01-31T12:12:25;11.60;;;1.83;;
49460;SDS011;35355;49.198;-0.368;2023-01-31T12:14:54;6.07;;;1.08;;
49460;SDS011;35355;49.198;-0.368;2023-01-31T12:17:24;7.30;;;0.95;;
49460;SDS011;35355;49.198;-0.368;2023-01-31T12:31:08;10.38;;;1.13;;
49460;SDS011;35355;49.198;-0.368;2023-01-31T12:42:08;11.90;;;1.25;;
49460;SDS011;35355;49.198;-0.368;2023-01-31T12:53:54;7.45;;;1.98;;
49460;SDS011;35355;49.198;-0.368;2023-01-31T13:01:57;10.60;;;1.92;;
49460;SDS011;35355;49.198;-0.368;2023-01-31T13:04:45;7.90;;;0.68;;
49460;SDS011;35355;49.198;-0.368;2023-01-31T13:07:29;12.80;;;2.20;;
49460;SDS011;35355;49.198;-0.368;2023-01-31T13:10:02;9.65;;;1.80;;
49460;SDS011;35355;49.198;-0.368;2023-01-31T13:12:32;13.82;;;1.58;;
49460;SDS011;35355;49.198;-0.368;2023-01-31T13:15:04;13.23;;;1.23;;
49460;SDS011;35355;49.198;-0.368;2023-01-31T13:17:38;7.90;;;1.02;;
49460;SDS011;35355;49.198;-0.368;2023-01-31T13:22:56;7.45;;;1.30;;
49460;SDS011;35355;49.198;-0.368;2023-01-31T13:28:15;15.80;;;1.45;;
49460;SDS011;35355;49.198;-0.368;2023-01-31T13:30:45;10.02;;;1.73;;
49460;SDS011;35355;49.198;-0.368;2023-01-31T13:33:22;13.38;;;1.92;;
49460;SDS011;35355;49.198;-0.368;2023-01-31T13:41:01;10.13;;;1.08;;
49460;SDS011;35355;49.198;-0.368;2023-01-31T13:43:29;10.10;;;1.90;;
49460;SDS011;35355;49.198;-0.368;2023-01-31T13:45:59;6.65;;;1.05;;
49460;SDS011;35355;49.198;-0.368;2023-01-31T13:53:36;17.00;;;1.20;;
49460;SDS011;35355;49.198;-0.368;2023-01-31T13:56:09;10.20;;;1.40;;
49460;SDS011;35355;49.198;-0.368;2023-01-31T13:58:41;18.83;;;1.80;;
49460;SDS011;35355;49.198;-0.368;2023-01-31T14:01:11;12.23;;;2.28;;
49460;SDS011;35355;49.198;-0.368;2023-01-31T14:24:19;13.23;;;3.20;;
49460;SDS011;35355;49.198;-0.368;2023-01-31T14:27:17;10.65;;;1.45;;
49460;SDS011;35355;49.198;-0.368;2023-01-31T14:29:45;7.97;;;1.60;;
49460;SDS011;35355;49.198;-0.368;2023-01-31T14:37:49;18.67;;;2.13;;
49460;SDS011;35355;49.198;-0.368;2023-01-31T14:48:12;10.38;;;1.42;;
49460;SDS011;35355;49.198;-0.368;2023-01-31T14:58:44;17.05;;;2.40;;
49460;SDS011;35355;49.198;-0.368;2023-01-31T15:01:11;13.38;;;1.80;;
49460;SDS011;35355;49.198;-0.368;2023-01-31T15:06:26;19.48;;;2.35;;
49460;SDS011;35355;49.198;-0.368;2023-01-31T15:11:45;18.10;;;2.42;;
49460;SDS011;35355;49.198;-0.368;2023-01-31T15:14:28;14.50;;;2.75;;
49460;SDS011;35355;49.198;-0.368;2023-01-31T15:19:42;7.85;;;1.88;;
49460;SDS011;35355;49.198;-0.368;2023-01-31T15:22:11;14.90;;;3.65;;
49460;SDS011;35355;49.198;-0.368;2023-01-31T15:24:42;15.25;;;2.30;;
49460;SDS011;35355;49.198;-0.368;2023-01-31T15:27:14;15.17;;;3.10;;
49460;SDS011;35355;49.198;-0.368;2023-01-31T15:32:44;15.55;;;2.58;;
49460;SDS011;35355;49.198;-0.368;2023-01-31T15:35:19;29.67;;;3.50;;
49460;SDS011;35355;49.198;-0.368;2023-01-31T15:38:40;19.15;;;4.10;;
49460;SDS011;35355;49.198;-0.368;2023-01-31T15:43:43;12.00;;;2.25;;
49460;SDS011;35355;49.198;-0.368;2023-01-31T15:46:13;12.60;;;2.10;;
49460;SDS011;35355;49.198;-0.368;2023-01-31T15:48:41;11.75;;;1.75;;
49460;SDS011;35355;49.198;-0.368;2023-01-31T15:51:08;11.50;;;1.88;;
49460;SDS011;35355;49.198;-0.368;2023-01-31T15:53:37;11.95;;;2.20;;
49460;SDS011;35355;49.198;-0.368;2023-01-31T15:56:02;19.20;;;2.40;;
49460;SDS011;35355;49.198;-0.368;2023-01-31T15:58:33;15.45;;;1.88;;
49460;SDS011;35355;49.198;-0.368;2023-01-31T16:01:01;15.15;;;1.98;;
49460;SDS011;35355;49.198;-0.368;2023-01-31T16:03:28;12.35;;;1.88;;
49460;SDS011;35355;49.198;-0.368;2023-01-31T16:05:57;12.48;;;3.17;;
49460;SDS011;35355;49.198;-0.368;2023-01-31T16:08:27;8.50;;;1.92;;
49460;SDS011;35355;49.198;-0.368;2023-01-31T16:11:00;18.60;;;2.85;;
49460;SDS011;35355;49.198;-0.368;2023-01-31T16:13:29;12.30;;;2.30;;
49460;SDS011;35355;49.198;-0.368;2023-01-31T16:15:55;16.40;;;2.17;;
49460;SDS011;35355;49.198;-0.368;2023-01-31T16:18:21;16.35;;;2.83;;
49460;SDS011;35355;49.198;-0.368;2023-01-31T16:23:31;14.60;;;2.50;;
49460;SDS011;35355;49.198;-0.368;2023-01-31T16:26:07;18.27;;;2.97;;
49460;SDS011;35355;49.198;-0.368;2023-01-31T16:28:43;15.68;;;2.80;;
49460;SDS011;35355;49.198;-0.368;2023-01-31T16:31:16;16.73;;;2.22;;
49460;SDS011;35355;49.198;-0.368;2023-01-31T16:36:14;17.30;;;2.33;;
49460;SDS011;35355;49.198;-0.368;2023-01-31T16:38:41;10.85;;;3.25;;
49460;SDS011;35355;49.198;-0.368;2023-01-31T16:41:10;19.42;;;3.13;;
49460;SDS011;35355;49.198;-0.368;2023-01-31T16:43:38;16.65;;;3.03;;
49460;SDS011;35355;49.198;-0.368;2023-01-31T16:46:15;17.63;;;3.25;;
49460;SDS011;35355;49.198;-0.368;2023-01-31T16:51:56;13.75;;;3.85;;
49460;SDS011;35355;49.198;-0.368;2023-01-31T16:59:58;13.23;;;3.47;;
49460;SDS011;35355;49.198;-0.368;2023-01-31T17:02:27;18.88;;;4.43;;
49460;SDS011;35355;49.198;-0.368;2023-01-31T17:05:18;12.00;;;4.35;;
49460;SDS011;35355;49.198;-0.368;2023-01-31T17:07:47;17.45;;;4.05;;
49460;SDS011;35355;49.198;-0.368;2023-01-31T17:10:22;17.85;;;3.72;;
49460;SDS011;35355;49.198;-0.368;2023-01-31T17:12:53;21.77;;;4.13;;
49460;SDS011;35355;49.198;-0.368;2023-01-31T17:15:24;18.15;;;3.45;;
49460;SDS011;35355;49.198;-0.368;2023-01-31T17:17:50;13.25;;;3.50;;
49460;SDS011;35355;49.198;-0.368;2023-01-31T17:20:16;21.67;;;4.05;;
49460;SDS011;35355;49.198;-0.368;2023-01-31T17:22:43;18.45;;;3.38;;
49460;SDS011;35355;49.198;-0.368;2023-01-31T17:25:15;19.35;;;3.72;;
49460;SDS011;35355;49.198;-0.368;2023-01-31T17:27:44;11.77;;;3.17;;
49460;SDS011;35355;49.198;-0.368;2023-01-31T17:30:11;16.10;;;4.07;;
49460;SDS011;35355;49.198;-0.368;2023-01-31T17:32:38;19.13;;;4.22;;
49460;SDS011;35355;49.198;-0.368;2023-01-31T17:37:59;14.98;;;3.63;;
49460;SDS011;35355;49.198;-0.368;2023-01-31T17:40:25;21.13;;;4.60;;
49460;SDS011;35355;49.198;-0.368;2023-01-31T17:42:51;20.27;;;3.65;;
49460;SDS011;35355;49.198;-0.368;2023-01-31T17:45:19;19.88;;;3.65;;
49460;SDS011;35355;49.198;-0.368;2023-01-31T17:47:45;16.02;;;4.28;;
49460;SDS011;35355;49.198;-0.368;2023-01-31T17:50:21;16.92;;;4.70;;
49460;SDS011;35355;49.198;-0.368;2023-01-31T17:52:48;7.10;;;2.53;;
49460;SDS011;35355;49.198;-0.368;2023-01-31T17:55:14;13.68;;;3.72;;
49460;SDS011;35355;49.198;-0.368;2023-01-31T17:57:42;14.95;;;3.13;;
49460;SDS011;35355;49.198;-0.368;2023-01-31T18:00:08;18.92;;;3.45;;
49460;SDS011;35355;49.198;-0.368;2023-01-31T18:02:37;17.88;;;3.20;;
49460;SDS011;35355;49.198;-0.368;2023-01-31T18:05:05;12.93;;;2.78;;
49460;SDS011;35355;49.198;-0.368;2023-01-31T18:07:31;13.57;;;3.13;;
49460;SDS011;35355;49.198;-0.368;2023-01-31T18:09:56;16.63;;;3.10;;
49460;SDS011;35355;49.198;-0.368;2023-01-31T18:12:22;6.22;;;2.42;;
49460;SDS011;35355;49.198;-0.368;2023-01-31T18:14:47;10.40;;;2.67;;
49460;SDS011;35355;49.198;-0.368;2023-01-31T18:17:13;13.13;;;2.53;;
49460;SDS011;35355;49.198;-0.368;2023-01-31T18:19:38;13.23;;;3.28;;
49460;SDS011;35355;49.198;-0.368;2023-01-31T18:22:04;15.32;;;2.58;;
49460;SDS011;35355;49.198;-0.368;2023-01-31T18:24:29;13.00;;;3.40;;
49460;SDS011;35355;49.198;-0.368;2023-01-31T18:26:55;17.48;;;3.22;;
49460;SDS011;35355;49.198;-0.368;2023-01-31T18:29:21;18.13;;;4.00;;
49460;SDS011;35355;49.198;-0.368;2023-01-31T18:31:49;11.27;;;2.13;;
49460;SDS011;35355;49.198;-0.368;2023-01-31T18:34:19;8.50;;;1.73;;